sensor_id;sensor_type;location;lat;lon;timestamp;P1;durP1;ratioP1;P2;durP2;ratioP2
78453;SDS011;67750;55.832;49.124;2023-02-28T00:01:22;12.20;;;6.08;;
78453;SDS011;67750;55.832;49.124;2023-02-28T00:03:52;9.55;;;5.40;;
78453;SDS011;67750;55.832;49.124;2023-02-28T00:06:21;12.37;;;6.72;;
78453;SDS011;67750;55.832;49.124;2023-02-28T00:08:51;13.00;;;6.72;;
78453;SDS011;67750;55.832;49.124;2023-02-28T00:11:20;12.10;;;6.03;;
78453;SDS011;67750;55.832;49.124;2023-02-28T00:13:50;12.47;;;5.80;;
78453;SDS011;67750;55.832;49.124;2023-02-28T00:16:20;12.70;;;5.92;;
78453;SDS011;67750;55.832;49.124;2023-02-28T00:18:51;12.20;;;6.92;;
78453;SDS011;67750;55.832;49.124;2023-02-28T00:21:20;14.10;;;6.85;;
78453;SDS011;67750;55.832;49.124;2023-02-28T00:23:50;11.53;;;6.47;;
78453;SDS011;67750;55.832;49.124;2023-02-28T00:26:19;13.85;;;5.95;;
78453;SDS011;67750;55.832;49.124;2023-02-28T00:28:49;11.95;;;5.90;;
78453;SDS011;67750;55.832;49.124;2023-02-28T00:31:20;12.07;;;6.33;;
78453;SDS011;67750;55.832;49.124;2023-02-28T00:33:49;9.83;;;5.85;;
78453;SDS011;67750;55.832;49.124;2023-02-28T00:36:20;12.65;;;6.03;;
78453;SDS011;67750;55.832;49.124;2023-02-28T00:38:50;12.23;;;6.30;;
78453;SDS011;67750;55.832;49.124;2023-02-28T00:41:19;11.45;;;5.67;;
78453;SDS011;67750;55.832;49.124;2023-02-28T00:43:48;12.82;;;6.85;;
78453;SDS011;67750;55.832;49.124;2023-02-28T00:46:18;12.20;;;5.87;;
78453;SDS011;67750;55.832;49.124;2023-02-28T00:48:47;11.95;;;5.40;;
78453;SDS011;67750;55.832;49.124;2023-02-28T00:51:17;11.95;;;5.92;;
78453;SDS011;67750;55.832;49.124;2023-02-28T00:53:46;12.18;;;5.78;;
78453;SDS011;67750;55.832;49.124;2023-02-28T00:56:16;12.80;;;6.03;;
78453;SDS011;67750;55.832;49.124;2023-02-28T01:01:36;12.63;;;6.03;;
78453;SDS011;67750;55.832;49.124;2023-02-28T01:04:06;10.13;;;5.17;;
78453;SDS011;67750;55.832;49.124;2023-02-28T01:06:35;11.53;;;5.37;;
78453;SDS011;67750;55.832;49.124;2023-02-28T01:09:05;10.58;;;5.53;;
78453;SDS011;67750;55.832;49.124;2023-02-28T01:11:35;12.82;;;5.17;;
78453;SDS011;67750;55.832;49.124;2023-02-28T01:14:04;12.00;;;6.35;;
78453;SDS011;67750;55.832;49.124;2023-02-28T01:16:34;12.78;;;5.87;;
78453;SDS011;67750;55.832;49.124;2023-02-28T01:19:03;9.80;;;4.70;;
78453;SDS011;67750;55.832;49.124;2023-02-28T01:21:33;8.63;;;4.75;;
78453;SDS011;67750;55.832;49.124;2023-02-28T01:24:03;8.88;;;4.58;;
78453;SDS011;67750;55.832;49.124;2023-02-28T01:26:32;11.25;;;5.15;;
78453;SDS011;67750;55.832;49.124;2023-02-28T01:29:02;8.45;;;4.78;;
78453;SDS011;67750;55.832;49.124;2023-02-28T01:31:31;8.93;;;4.90;;
78453;SDS011;67750;55.832;49.124;2023-02-28T01:34:01;9.28;;;4.37;;
78453;SDS011;67750;55.832;49.124;2023-02-28T01:36:31;9.18;;;5.15;;
78453;SDS011;67750;55.832;49.124;2023-02-28T01:39:00;8.88;;;4.40;;
78453;SDS011;67750;55.832;49.124;2023-02-28T01:41:30;8.38;;;4.75;;
78453;SDS011;67750;55.832;49.124;2023-02-28T01:44:02;8.60;;;4.33;;
78453;SDS011;67750;55.832;49.124;2023-02-28T01:46:33;8.95;;;4.40;;
78453;SDS011;67750;55.832;49.124;2023-02-28T01:54:59;10.03;;;4.97;;
78453;SDS011;67750;55.832;49.124;2023-02-28T01:56:57;8.95;;;4.65;;
78453;SDS011;67750;55.832;49.124;2023-02-28T01:59:29;9.70;;;4.50;;
78453;SDS011;67750;55.832;49.124;2023-02-28T02:01:57;7.85;;;4.40;;
78453;SDS011;67750;55.832;49.124;2023-02-28T02:04:30;7.92;;;4.58;;
78453;SDS011;67750;55.832;49.124;2023-02-28T02:06:58;6.72;;;4.33;;
78453;SDS011;67750;55.832;49.124;2023-02-28T02:09:28;7.75;;;4.05;;
78453;SDS011;67750;55.832;49.124;2023-02-28T02:11:57;7.75;;;4.10;;
78453;SDS011;67750;55.832;49.124;2023-02-28T02:37:39;7.97;;;3.98;;
78453;SDS011;67750;55.832;49.124;2023-02-28T02:45:17;8.48;;;4.00;;
78453;SDS011;67750;55.832;49.124;2023-02-28T02:47:45;7.72;;;4.42;;
78453;SDS011;67750;55.832;49.124;2023-02-28T02:50:17;10.15;;;5.30;;
78453;SDS011;67750;55.832;49.124;2023-02-28T02:52:48;9.75;;;4.95;;
78453;SDS011;67750;55.832;49.124;2023-02-28T02:55:17;8.83;;;4.60;;
78453;SDS011;67750;55.832;49.124;2023-02-28T02:57:48;8.40;;;4.55;;
78453;SDS011;67750;55.832;49.124;2023-02-28T03:00:20;9.55;;;4.53;;
78453;SDS011;67750;55.832;49.124;2023-02-28T03:02:49;8.83;;;5.12;;
78453;SDS011;67750;55.832;49.124;2023-02-28T03:08:09;9.55;;;5.35;;
78453;SDS011;67750;55.832;49.124;2023-02-28T03:11:14;8.35;;;4.50;;
78453;SDS011;67750;55.832;49.124;2023-02-28T03:24:11;6.67;;;4.28;;
78453;SDS011;67750;55.832;49.124;2023-02-28T03:35:10;7.67;;;3.40;;
78453;SDS011;67750;55.832;49.124;2023-02-28T03:40:30;5.87;;;3.40;;
78453;SDS011;67750;55.832;49.124;2023-02-28T03:43:02;9.68;;;3.95;;
78453;SDS011;67750;55.832;49.124;2023-02-28T03:45:32;7.53;;;3.70;;
78453;SDS011;67750;55.832;49.124;2023-02-28T03:53:42;7.62;;;3.72;;
78453;SDS011;67750;55.832;49.124;2023-02-28T03:56:13;8.35;;;3.75;;
78453;SDS011;67750;55.832;49.124;2023-02-28T04:04:22;6.50;;;3.17;;
78453;SDS011;67750;55.832;49.124;2023-02-28T04:06:51;6.70;;;3.30;;
78453;SDS011;67750;55.832;49.124;2023-02-28T04:09:21;7.10;;;3.87;;
78453;SDS011;67750;55.832;49.124;2023-02-28T04:11:51;7.42;;;3.42;;
78453;SDS011;67750;55.832;49.124;2023-02-28T04:14:22;7.30;;;4.08;;
78453;SDS011;67750;55.832;49.124;2023-02-28T04:16:52;8.28;;;4.03;;
78453;SDS011;67750;55.832;49.124;2023-02-28T04:19:21;6.35;;;3.40;;
78453;SDS011;67750;55.832;49.124;2023-02-28T04:21:51;8.10;;;3.55;;
78453;SDS011;67750;55.832;49.124;2023-02-28T04:24:22;6.55;;;3.42;;
78453;SDS011;67750;55.832;49.124;2023-02-28T04:26:52;10.13;;;3.65;;
78453;SDS011;67750;55.832;49.124;2023-02-28T04:29:23;6.03;;;2.75;;
78453;SDS011;67750;55.832;49.124;2023-02-28T04:31:53;8.00;;;4.08;;
78453;SDS011;67750;55.832;49.124;2023-02-28T04:34:43;5.45;;;3.40;;
78453;SDS011;67750;55.832;49.124;2023-02-28T04:37:12;6.87;;;3.35;;
78453;SDS011;67750;55.832;49.124;2023-02-28T04:39:42;8.83;;;4.50;;
78453;SDS011;67750;55.832;49.124;2023-02-28T04:42:12;6.33;;;3.90;;
78453;SDS011;67750;55.832;49.124;2023-02-28T04:44:41;8.28;;;3.98;;
78453;SDS011;67750;55.832;49.124;2023-02-28T04:47:11;7.58;;;3.35;;
78453;SDS011;67750;55.832;49.124;2023-02-28T04:49:40;6.53;;;3.87;;
78453;SDS011;67750;55.832;49.124;2023-02-28T04:52:10;6.55;;;3.70;;
78453;SDS011;67750;55.832;49.124;2023-02-28T04:54:40;9.60;;;4.50;;
78453;SDS011;67750;55.832;49.124;2023-02-28T04:57:09;9.18;;;4.08;;
78453;SDS011;67750;55.832;49.124;2023-02-28T04:59:38;6.85;;;3.65;;
78453;SDS011;67750;55.832;49.124;2023-02-28T05:02:08;10.63;;;4.53;;
78453;SDS011;67750;55.832;49.124;2023-02-28T05:04:37;7.05;;;3.72;;
78453;SDS011;67750;55.832;49.124;2023-02-28T05:07:07;6.10;;;3.27;;
78453;SDS011;67750;55.832;49.124;2023-02-28T05:09:36;7.65;;;3.65;;
78453;SDS011;67750;55.832;49.124;2023-02-28T05:12:06;7.50;;;3.62;;
78453;SDS011;67750;55.832;49.124;2023-02-28T05:14:36;7.60;;;3.50;;
78453;SDS011;67750;55.832;49.124;2023-02-28T05:17:05;6.78;;;3.70;;
78453;SDS011;67750;55.832;49.124;2023-02-28T05:19:34;6.37;;;4.03;;
78453;SDS011;67750;55.832;49.124;2023-02-28T05:22:04;7.17;;;4.28;;
78453;SDS011;67750;55.832;49.124;2023-02-28T05:24:33;8.63;;;4.53;;
78453;SDS011;67750;55.832;49.124;2023-02-28T05:27:03;7.85;;;4.08;;
78453;SDS011;67750;55.832;49.124;2023-02-28T05:29:32;10.68;;;5.05;;
78453;SDS011;67750;55.832;49.124;2023-02-28T05:32:03;6.58;;;3.83;;
78453;SDS011;67750;55.832;49.124;2023-02-28T05:34:33;10.93;;;5.20;;
78453;SDS011;67750;55.832;49.124;2023-02-28T05:37:02;10.50;;;4.67;;
78453;SDS011;67750;55.832;49.124;2023-02-28T05:39:31;12.40;;;5.70;;
78453;SDS011;67750;55.832;49.124;2023-02-28T05:42:01;7.87;;;4.25;;
78453;SDS011;67750;55.832;49.124;2023-02-28T05:44:30;9.98;;;5.22;;
78453;SDS011;67750;55.832;49.124;2023-02-28T05:47:00;10.78;;;5.45;;
78453;SDS011;67750;55.832;49.124;2023-02-28T05:49:29;9.33;;;5.10;;
78453;SDS011;67750;55.832;49.124;2023-02-28T05:51:59;10.98;;;5.87;;
78453;SDS011;67750;55.832;49.124;2023-02-28T05:54:28;10.28;;;5.78;;
78453;SDS011;67750;55.832;49.124;2023-02-28T05:56:57;9.48;;;5.15;;
78453;SDS011;67750;55.832;49.124;2023-02-28T05:59:27;8.98;;;4.50;;
78453;SDS011;67750;55.832;49.124;2023-02-28T06:01:56;9.68;;;5.15;;
78453;SDS011;67750;55.832;49.124;2023-02-28T06:04:26;8.55;;;5.00;;
78453;SDS011;67750;55.832;49.124;2023-02-28T06:06:55;10.82;;;5.45;;
78453;SDS011;67750;55.832;49.124;2023-02-28T06:09:25;10.05;;;5.33;;
78453;SDS011;67750;55.832;49.124;2023-02-28T06:11:54;10.88;;;5.15;;
78453;SDS011;67750;55.832;49.124;2023-02-28T06:14:24;9.83;;;5.20;;
78453;SDS011;67750;55.832;49.124;2023-02-28T06:16:53;8.50;;;5.22;;
78453;SDS011;67750;55.832;49.124;2023-02-28T06:19:23;9.35;;;5.47;;
78453;SDS011;67750;55.832;49.124;2023-02-28T06:21:53;9.78;;;4.72;;
78453;SDS011;67750;55.832;49.124;2023-02-28T06:24:24;7.72;;;4.72;;
78453;SDS011;67750;55.832;49.124;2023-02-28T06:26:56;9.08;;;4.58;;
78453;SDS011;67750;55.832;49.124;2023-02-28T06:29:27;7.40;;;4.10;;
78453;SDS011;67750;55.832;49.124;2023-02-28T06:31:56;7.30;;;4.47;;
78453;SDS011;67750;55.832;49.124;2023-02-28T06:34:25;7.72;;;3.75;;
78453;SDS011;67750;55.832;49.124;2023-02-28T06:36:55;6.42;;;3.98;;
78453;SDS011;67750;55.832;49.124;2023-02-28T06:39:26;7.58;;;4.00;;
78453;SDS011;67750;55.832;49.124;2023-02-28T06:41:55;7.47;;;3.83;;
78453;SDS011;67750;55.832;49.124;2023-02-28T06:44:25;7.22;;;4.12;;
78453;SDS011;67750;55.832;49.124;2023-02-28T06:46:56;7.20;;;4.37;;
78453;SDS011;67750;55.832;49.124;2023-02-28T06:49:25;6.37;;;4.20;;
78453;SDS011;67750;55.832;49.124;2023-02-28T06:51:55;7.00;;;3.87;;
78453;SDS011;67750;55.832;49.124;2023-02-28T06:54:27;5.87;;;3.70;;
78453;SDS011;67750;55.832;49.124;2023-02-28T06:56:57;7.70;;;4.12;;
78453;SDS011;67750;55.832;49.124;2023-02-28T06:59:26;8.90;;;4.83;;
78453;SDS011;67750;55.832;49.124;2023-02-28T07:01:56;7.45;;;4.20;;
78453;SDS011;67750;55.832;49.124;2023-02-28T07:04:25;7.33;;;3.83;;
78453;SDS011;67750;55.832;49.124;2023-02-28T07:06:55;7.65;;;4.30;;
78453;SDS011;67750;55.832;49.124;2023-02-28T07:09:24;7.85;;;4.42;;
78453;SDS011;67750;55.832;49.124;2023-02-28T07:11:55;8.00;;;3.80;;
78453;SDS011;67750;55.832;49.124;2023-02-28T07:14:25;8.53;;;4.37;;
78453;SDS011;67750;55.832;49.124;2023-02-28T07:16:54;6.65;;;3.85;;
78453;SDS011;67750;55.832;49.124;2023-02-28T07:19:24;8.40;;;4.97;;
78453;SDS011;67750;55.832;49.124;2023-02-28T07:21:53;7.15;;;3.77;;
78453;SDS011;67750;55.832;49.124;2023-02-28T07:24:22;6.22;;;3.45;;
78453;SDS011;67750;55.832;49.124;2023-02-28T07:26:53;5.72;;;3.40;;
78453;SDS011;67750;55.832;49.124;2023-02-28T07:29:43;5.90;;;4.00;;
78453;SDS011;67750;55.832;49.124;2023-02-28T07:32:13;6.58;;;3.30;;
78453;SDS011;67750;55.832;49.124;2023-02-28T07:35:17;6.78;;;3.58;;
78453;SDS011;67750;55.832;49.124;2023-02-28T07:37:14;7.17;;;3.30;;
78453;SDS011;67750;55.832;49.124;2023-02-28T07:39:43;5.58;;;3.27;;
78453;SDS011;67750;55.832;49.124;2023-02-28T07:42:15;4.85;;;3.00;;
78453;SDS011;67750;55.832;49.124;2023-02-28T07:44:44;6.30;;;3.15;;
78453;SDS011;67750;55.832;49.124;2023-02-28T07:50:03;4.10;;;2.20;;
78453;SDS011;67750;55.832;49.124;2023-02-28T07:52:33;4.83;;;2.27;;
78453;SDS011;67750;55.832;49.124;2023-02-28T07:55:02;7.10;;;3.22;;
78453;SDS011;67750;55.832;49.124;2023-02-28T07:57:32;6.83;;;2.67;;
78453;SDS011;67750;55.832;49.124;2023-02-28T08:00:02;6.15;;;3.08;;
78453;SDS011;67750;55.832;49.124;2023-02-28T08:02:33;6.35;;;3.20;;
78453;SDS011;67750;55.832;49.124;2023-02-28T08:05:05;4.42;;;2.30;;
78453;SDS011;67750;55.832;49.124;2023-02-28T08:07:37;5.10;;;2.67;;
78453;SDS011;67750;55.832;49.124;2023-02-28T08:10:07;5.42;;;2.12;;
78453;SDS011;67750;55.832;49.124;2023-02-28T08:12:56;8.18;;;3.10;;
78453;SDS011;67750;55.832;49.124;2023-02-28T08:15:28;5.22;;;3.05;;
78453;SDS011;67750;55.832;49.124;2023-02-28T08:17:57;5.78;;;2.72;;
78453;SDS011;67750;55.832;49.124;2023-02-28T08:20:26;6.72;;;2.87;;
78453;SDS011;67750;55.832;49.124;2023-02-28T08:22:56;4.17;;;2.35;;
78453;SDS011;67750;55.832;49.124;2023-02-28T08:25:25;5.10;;;2.17;;
78453;SDS011;67750;55.832;49.124;2023-02-28T08:27:55;6.95;;;2.80;;
78453;SDS011;67750;55.832;49.124;2023-02-28T08:30:24;7.22;;;2.65;;
78453;SDS011;67750;55.832;49.124;2023-02-28T08:32:54;5.35;;;2.37;;
78453;SDS011;67750;55.832;49.124;2023-02-28T08:35:23;4.35;;;2.40;;
78453;SDS011;67750;55.832;49.124;2023-02-28T08:37:53;4.72;;;2.17;;
78453;SDS011;67750;55.832;49.124;2023-02-28T08:40:22;3.40;;;2.25;;
78453;SDS011;67750;55.832;49.124;2023-02-28T08:42:51;4.85;;;2.45;;
78453;SDS011;67750;55.832;49.124;2023-02-28T08:45:21;3.75;;;2.15;;
78453;SDS011;67750;55.832;49.124;2023-02-28T08:47:50;4.35;;;2.35;;
78453;SDS011;67750;55.832;49.124;2023-02-28T08:50:20;4.67;;;1.87;;
78453;SDS011;67750;55.832;49.124;2023-02-28T08:52:49;3.20;;;2.17;;
78453;SDS011;67750;55.832;49.124;2023-02-28T08:55:18;3.22;;;2.00;;
78453;SDS011;67750;55.832;49.124;2023-02-28T09:00:37;5.97;;;2.27;;
78453;SDS011;67750;55.832;49.124;2023-02-28T09:03:06;5.50;;;2.22;;
78453;SDS011;67750;55.832;49.124;2023-02-28T09:05:36;6.15;;;2.65;;
78453;SDS011;67750;55.832;49.124;2023-02-28T09:08:05;3.72;;;2.15;;
78453;SDS011;67750;55.832;49.124;2023-02-28T09:10:35;4.22;;;2.10;;
78453;SDS011;67750;55.832;49.124;2023-02-28T09:13:04;4.20;;;2.62;;
78453;SDS011;67750;55.832;49.124;2023-02-28T09:15:36;4.42;;;2.47;;
78453;SDS011;67750;55.832;49.124;2023-02-28T09:18:06;4.25;;;2.42;;
78453;SDS011;67750;55.832;49.124;2023-02-28T09:20:37;3.47;;;1.98;;
78453;SDS011;67750;55.832;49.124;2023-02-28T09:23:07;4.08;;;2.20;;
78453;SDS011;67750;55.832;49.124;2023-02-28T09:25:36;5.47;;;1.80;;
78453;SDS011;67750;55.832;49.124;2023-02-28T09:28:06;4.00;;;2.10;;
78453;SDS011;67750;55.832;49.124;2023-02-28T09:30:36;4.00;;;2.10;;
78453;SDS011;67750;55.832;49.124;2023-02-28T09:33:05;6.22;;;2.62;;
78453;SDS011;67750;55.832;49.124;2023-02-28T09:35:34;3.67;;;2.37;;
78453;SDS011;67750;55.832;49.124;2023-02-28T09:38:04;3.67;;;1.95;;
78453;SDS011;67750;55.832;49.124;2023-02-28T09:43:25;3.87;;;2.12;;
78453;SDS011;67750;55.832;49.124;2023-02-28T09:48:44;4.55;;;2.33;;
78453;SDS011;67750;55.832;49.124;2023-02-28T09:54:04;3.45;;;2.05;;
78453;SDS011;67750;55.832;49.124;2023-02-28T10:05:05;4.60;;;2.12;;
78453;SDS011;67750;55.832;49.124;2023-02-28T10:16:05;3.45;;;2.12;;
78453;SDS011;67750;55.832;49.124;2023-02-28T10:18:38;5.42;;;1.90;;
78453;SDS011;67750;55.832;49.124;2023-02-28T10:21:05;3.80;;;1.82;;
78453;SDS011;67750;55.832;49.124;2023-02-28T10:23:35;5.67;;;2.62;;
78453;SDS011;67750;55.832;49.124;2023-02-28T10:26:40;4.87;;;2.60;;
78453;SDS011;67750;55.832;49.124;2023-02-28T10:28:37;6.10;;;1.95;;
78453;SDS011;67750;55.832;49.124;2023-02-28T10:31:08;4.83;;;2.30;;
78453;SDS011;67750;55.832;49.124;2023-02-28T10:33:37;4.33;;;1.72;;
78453;SDS011;67750;55.832;49.124;2023-02-28T10:36:08;3.30;;;2.12;;
78453;SDS011;67750;55.832;49.124;2023-02-28T10:38:38;3.00;;;2.00;;
78453;SDS011;67750;55.832;49.124;2023-02-28T10:46:48;5.08;;;2.30;;
78453;SDS011;67750;55.832;49.124;2023-02-28T10:49:50;4.47;;;2.45;;
78453;SDS011;67750;55.832;49.124;2023-02-28T10:51:51;4.03;;;2.27;;
78453;SDS011;67750;55.832;49.124;2023-02-28T11:02:48;4.28;;;2.10;;
78453;SDS011;67750;55.832;49.124;2023-02-28T11:10:58;5.00;;;2.22;;
78453;SDS011;67750;55.832;49.124;2023-02-28T11:13:29;4.50;;;2.00;;
78453;SDS011;67750;55.832;49.124;2023-02-28T11:15:59;5.22;;;2.62;;
78453;SDS011;67750;55.832;49.124;2023-02-28T11:18:30;4.47;;;2.22;;
78453;SDS011;67750;55.832;49.124;2023-02-28T11:21:00;5.17;;;2.30;;
78453;SDS011;67750;55.832;49.124;2023-02-28T11:23:31;4.40;;;1.87;;
78453;SDS011;67750;55.832;49.124;2023-02-28T11:26:02;3.70;;;2.10;;
78453;SDS011;67750;55.832;49.124;2023-02-28T11:33:53;3.30;;;1.90;;
78453;SDS011;67750;55.832;49.124;2023-02-28T11:36:24;3.15;;;1.75;;
78453;SDS011;67750;55.832;49.124;2023-02-28T11:38:54;5.08;;;2.08;;
78453;SDS011;67750;55.832;49.124;2023-02-28T11:41:28;5.08;;;1.87;;
78453;SDS011;67750;55.832;49.124;2023-02-28T12:28:49;5.70;;;2.25;;
78453;SDS011;67750;55.832;49.124;2023-02-28T12:31:20;3.72;;;2.22;;
78453;SDS011;67750;55.832;49.124;2023-02-28T12:36:38;4.67;;;2.40;;
78453;SDS011;67750;55.832;49.124;2023-02-28T12:39:10;5.72;;;2.75;;
78453;SDS011;67750;55.832;49.124;2023-02-28T12:47:18;4.90;;;2.33;;
78453;SDS011;67750;55.832;49.124;2023-02-28T12:56:03;4.17;;;2.27;;
78453;SDS011;67750;55.832;49.124;2023-02-28T13:09:00;5.05;;;2.58;;
78453;SDS011;67750;55.832;49.124;2023-02-28T13:28:09;5.50;;;2.08;;
78453;SDS011;67750;55.832;49.124;2023-02-28T13:33:31;3.35;;;1.50;;
78453;SDS011;67750;55.832;49.124;2023-02-28T13:54:55;4.90;;;1.87;;
78453;SDS011;67750;55.832;49.124;2023-02-28T13:57:58;3.27;;;1.80;;
78453;SDS011;67750;55.832;49.124;2023-02-28T14:05:34;4.28;;;1.80;;
78453;SDS011;67750;55.832;49.124;2023-02-28T14:08:06;2.98;;;1.90;;
78453;SDS011;67750;55.832;49.124;2023-02-28T14:11:23;4.60;;;2.05;;
78453;SDS011;67750;55.832;49.124;2023-02-28T14:15:57;4.97;;;2.40;;
78453;SDS011;67750;55.832;49.124;2023-02-28T14:18:29;3.72;;;1.98;;
78453;SDS011;67750;55.832;49.124;2023-02-28T14:37:56;6.15;;;2.37;;
78453;SDS011;67750;55.832;49.124;2023-02-28T14:40:27;4.22;;;2.33;;
78453;SDS011;67750;55.832;49.124;2023-02-28T14:43:28;3.83;;;1.87;;
78453;SDS011;67750;55.832;49.124;2023-02-28T14:48:17;7.67;;;2.58;;
78453;SDS011;67750;55.832;49.124;2023-02-28T14:50:49;3.35;;;1.95;;
78453;SDS011;67750;55.832;49.124;2023-02-28T14:53:19;3.87;;;1.87;;
78453;SDS011;67750;55.832;49.124;2023-02-28T14:55:49;3.72;;;2.05;;
78453;SDS011;67750;55.832;49.124;2023-02-28T15:01:09;4.15;;;1.80;;
78453;SDS011;67750;55.832;49.124;2023-02-28T15:03:39;3.65;;;2.12;;
78453;SDS011;67750;55.832;49.124;2023-02-28T15:06:20;4.12;;;2.30;;
78453;SDS011;67750;55.832;49.124;2023-02-28T15:16:01;4.58;;;2.30;;
78453;SDS011;67750;55.832;49.124;2023-02-28T15:21:32;4.28;;;2.52;;
78453;SDS011;67750;55.832;49.124;2023-02-28T15:46:23;6.35;;;3.00;;
78453;SDS011;67750;55.832;49.124;2023-02-28T15:48:53;6.37;;;2.92;;
78453;SDS011;67750;55.832;49.124;2023-02-28T15:51:24;4.45;;;2.30;;
78453;SDS011;67750;55.832;49.124;2023-02-28T15:59:17;6.65;;;2.50;;
78453;SDS011;67750;55.832;49.124;2023-02-28T16:01:46;6.70;;;2.70;;
78453;SDS011;67750;55.832;49.124;2023-02-28T16:04:17;4.95;;;2.92;;
78453;SDS011;67750;55.832;49.124;2023-02-28T16:06:59;5.10;;;2.85;;
78453;SDS011;67750;55.832;49.124;2023-02-28T16:09:18;5.08;;;2.40;;
78453;SDS011;67750;55.832;49.124;2023-02-28T16:11:49;5.65;;;2.50;;
78453;SDS011;67750;55.832;49.124;2023-02-28T16:14:21;6.47;;;3.17;;
78453;SDS011;67750;55.832;49.124;2023-02-28T16:16:52;7.08;;;3.27;;
78453;SDS011;67750;55.832;49.124;2023-02-28T16:19:22;6.33;;;2.85;;
78453;SDS011;67750;55.832;49.124;2023-02-28T16:21:51;5.85;;;3.10;;
78453;SDS011;67750;55.832;49.124;2023-02-28T16:24:21;6.17;;;3.15;;
78453;SDS011;67750;55.832;49.124;2023-02-28T16:26:50;7.92;;;3.17;;
78453;SDS011;67750;55.832;49.124;2023-02-28T16:32:12;9.38;;;3.72;;
78453;SDS011;67750;55.832;49.124;2023-02-28T16:34:43;7.67;;;2.80;;
78453;SDS011;67750;55.832;49.124;2023-02-28T16:37:13;10.25;;;3.58;;
78453;SDS011;67750;55.832;49.124;2023-02-28T16:39:43;10.50;;;3.22;;
78453;SDS011;67750;55.832;49.124;2023-02-28T16:42:15;9.43;;;3.67;;
78453;SDS011;67750;55.832;49.124;2023-02-28T16:44:45;8.58;;;3.27;;
78453;SDS011;67750;55.832;49.124;2023-02-28T16:47:15;9.38;;;3.25;;
78453;SDS011;67750;55.832;49.124;2023-02-28T16:49:44;7.35;;;2.77;;
78453;SDS011;67750;55.832;49.124;2023-02-28T16:52:14;7.65;;;3.20;;
78453;SDS011;67750;55.832;49.124;2023-02-28T16:54:43;6.85;;;3.08;;
78453;SDS011;67750;55.832;49.124;2023-02-28T16:57:44;7.53;;;3.10;;
78453;SDS011;67750;55.832;49.124;2023-02-28T16:59:44;9.98;;;3.67;;
78453;SDS011;67750;55.832;49.124;2023-02-28T17:02:16;7.67;;;3.15;;
78453;SDS011;67750;55.832;49.124;2023-02-28T17:05:06;11.63;;;4.75;;
78453;SDS011;67750;55.832;49.124;2023-02-28T17:07:38;12.58;;;3.70;;
78453;SDS011;67750;55.832;49.124;2023-02-28T17:12:57;20.70;;;6.67;;
78453;SDS011;67750;55.832;49.124;2023-02-28T17:15:26;19.67;;;6.25;;
78453;SDS011;67750;55.832;49.124;2023-02-28T17:17:56;16.67;;;5.25;;
78453;SDS011;67750;55.832;49.124;2023-02-28T17:20:26;13.25;;;5.03;;
78453;SDS011;67750;55.832;49.124;2023-02-28T17:22:56;11.70;;;5.03;;
78453;SDS011;67750;55.832;49.124;2023-02-28T17:25:25;11.38;;;3.67;;
78453;SDS011;67750;55.832;49.124;2023-02-28T17:27:55;8.98;;;4.60;;
78453;SDS011;67750;55.832;49.124;2023-02-28T17:30:25;6.22;;;3.10;;
78453;SDS011;67750;55.832;49.124;2023-02-28T17:32:55;7.97;;;3.70;;
78453;SDS011;67750;55.832;49.124;2023-02-28T17:35:25;9.33;;;3.62;;
78453;SDS011;67750;55.832;49.124;2023-02-28T17:37:55;9.65;;;3.15;;
78453;SDS011;67750;55.832;49.124;2023-02-28T17:40:24;8.88;;;3.80;;
78453;SDS011;67750;55.832;49.124;2023-02-28T17:42:53;8.55;;;3.98;;
78453;SDS011;67750;55.832;49.124;2023-02-28T17:48:21;7.30;;;3.83;;
78453;SDS011;67750;55.832;49.124;2023-02-28T17:50:51;7.47;;;3.40;;
78453;SDS011;67750;55.832;49.124;2023-02-28T17:56:27;6.58;;;3.02;;
78453;SDS011;67750;55.832;49.124;2023-02-28T17:58:56;8.58;;;3.75;;
78453;SDS011;67750;55.832;49.124;2023-02-28T18:01:26;9.40;;;4.17;;
78453;SDS011;67750;55.832;49.124;2023-02-28T18:03:56;6.10;;;3.50;;
78453;SDS011;67750;55.832;49.124;2023-02-28T18:06:26;6.28;;;3.58;;
78453;SDS011;67750;55.832;49.124;2023-02-28T18:08:56;7.37;;;3.67;;
78453;SDS011;67750;55.832;49.124;2023-02-28T18:11:26;7.90;;;4.40;;
78453;SDS011;67750;55.832;49.124;2023-02-28T18:13:57;7.05;;;3.70;;
78453;SDS011;67750;55.832;49.124;2023-02-28T18:16:26;7.35;;;4.08;;
78453;SDS011;67750;55.832;49.124;2023-02-28T18:18:56;8.03;;;3.65;;
78453;SDS011;67750;55.832;49.124;2023-02-28T18:21:25;6.67;;;3.67;;
78453;SDS011;67750;55.832;49.124;2023-02-28T18:23:54;9.68;;;4.45;;
78453;SDS011;67750;55.832;49.124;2023-02-28T18:26:25;8.03;;;3.83;;
78453;SDS011;67750;55.832;49.124;2023-02-28T18:28:54;11.70;;;4.33;;
78453;SDS011;67750;55.832;49.124;2023-02-28T18:31:24;9.55;;;4.53;;
78453;SDS011;67750;55.832;49.124;2023-02-28T18:33:53;7.97;;;3.62;;
78453;SDS011;67750;55.832;49.124;2023-02-28T18:36:23;8.83;;;3.20;;
78453;SDS011;67750;55.832;49.124;2023-02-28T18:38:52;6.72;;;3.55;;
78453;SDS011;67750;55.832;49.124;2023-02-28T18:41:22;8.08;;;4.17;;
78453;SDS011;67750;55.832;49.124;2023-02-28T18:43:51;10.08;;;3.83;;
78453;SDS011;67750;55.832;49.124;2023-02-28T18:46:21;5.60;;;3.20;;
78453;SDS011;67750;55.832;49.124;2023-02-28T18:48:51;6.10;;;3.27;;
78453;SDS011;67750;55.832;49.124;2023-02-28T18:51:21;6.45;;;3.42;;
78453;SDS011;67750;55.832;49.124;2023-02-28T18:53:51;6.42;;;3.00;;
78453;SDS011;67750;55.832;49.124;2023-02-28T18:56:21;7.15;;;3.40;;
78453;SDS011;67750;55.832;49.124;2023-02-28T18:58:54;6.83;;;3.40;;
78453;SDS011;67750;55.832;49.124;2023-02-28T19:02:05;6.72;;;3.47;;
78453;SDS011;67750;55.832;49.124;2023-02-28T19:04:36;6.95;;;3.80;;
78453;SDS011;67750;55.832;49.124;2023-02-28T19:07:06;6.45;;;3.12;;
78453;SDS011;67750;55.832;49.124;2023-02-28T19:09:37;6.17;;;3.58;;
78453;SDS011;67750;55.832;49.124;2023-02-28T19:12:06;5.78;;;3.12;;
78453;SDS011;67750;55.832;49.124;2023-02-28T19:14:36;6.80;;;3.35;;
78453;SDS011;67750;55.832;49.124;2023-02-28T19:24:27;6.03;;;3.27;;
78453;SDS011;67750;55.832;49.124;2023-02-28T19:34:51;7.10;;;3.37;;
78453;SDS011;67750;55.832;49.124;2023-02-28T19:37:20;8.20;;;3.10;;
78453;SDS011;67750;55.832;49.124;2023-02-28T19:39:50;7.10;;;3.25;;
78453;SDS011;67750;55.832;49.124;2023-02-28T19:42:21;6.65;;;3.40;;
78453;SDS011;67750;55.832;49.124;2023-02-28T19:44:50;6.47;;;3.55;;
78453;SDS011;67750;55.832;49.124;2023-02-28T19:47:20;9.40;;;3.83;;
78453;SDS011;67750;55.832;49.124;2023-02-28T19:49:49;6.65;;;3.33;;
78453;SDS011;67750;55.832;49.124;2023-02-28T19:52:20;8.30;;;3.95;;
78453;SDS011;67750;55.832;49.124;2023-02-28T19:54:50;8.20;;;3.70;;
78453;SDS011;67750;55.832;49.124;2023-02-28T19:57:19;9.00;;;3.62;;
78453;SDS011;67750;55.832;49.124;2023-02-28T19:59:50;7.47;;;3.70;;
78453;SDS011;67750;55.832;49.124;2023-02-28T20:02:20;7.53;;;2.95;;
78453;SDS011;67750;55.832;49.124;2023-02-28T20:04:50;10.78;;;3.67;;
78453;SDS011;67750;55.832;49.124;2023-02-28T20:07:20;9.03;;;3.85;;
78453;SDS011;67750;55.832;49.124;2023-02-28T20:09:50;10.58;;;3.95;;
78453;SDS011;67750;55.832;49.124;2023-02-28T20:12:20;8.65;;;3.50;;
78453;SDS011;67750;55.832;49.124;2023-02-28T20:14:49;7.97;;;3.67;;
78453;SDS011;67750;55.832;49.124;2023-02-28T20:17:19;6.85;;;3.30;;
78453;SDS011;67750;55.832;49.124;2023-02-28T20:19:48;7.40;;;3.62;;
78453;SDS011;67750;55.832;49.124;2023-02-28T20:22:18;9.23;;;3.55;;
78453;SDS011;67750;55.832;49.124;2023-02-28T20:24:47;6.62;;;3.40;;